sensor_id;sensor_type;location;lat;lon;timestamp;pressure;altitude;pressure_sealevel;temperature;humidity
31088;BME280;17745;55.914;37.554;2023-05-01T00:02:48;98262.22;;;8.70;78.27
31088;BME280;17745;55.914;37.554;2023-05-01T00:05:35;98239.81;;;8.73;78.25
31088;BME280;17745;55.914;37.554;2023-05-01T00:08:39;98233.75;;;8.62;78.42
31088;BME280;17745;55.914;37.554;2023-05-01T00:11:43;98228.94;;;8.38;78.82
31088;BME280;17745;55.914;37.554;2023-05-01T00:53:32;98254.31;;;8.86;77.15
31088;BME280;17745;55.914;37.554;2023-05-01T00:56:33;98242.69;;;8.92;77.19
31088;BME280;17745;55.914;37.554;2023-05-01T00:59:24;98235.03;;;9.01;77.32
31088;BME280;17745;55.914;37.554;2023-05-01T01:02:24;98222.38;;;9.03;77.12
31088;BME280;17745;55.914;37.554;2023-05-01T01:05:27;98189.13;;;8.92;77.12
31088;BME280;17745;55.914;37.554;2023-05-01T01:22:20;98244.53;;;9.12;77.01
31088;BME280;17745;55.914;37.554;2023-05-01T01:32:08;98251.34;;;9.39;76.63
31088;BME280;17745;55.914;37.554;2023-05-01T01:41:43;98253.97;;;9.55;76.53
31088;BME280;17745;55.914;37.554;2023-05-01T01:44:39;98231.03;;;9.35;76.57
31088;BME280;17745;55.914;37.554;2023-05-01T01:47:25;98219.13;;;9.37;76.48
31088;BME280;17745;55.914;37.554;2023-05-01T01:50:04;98214.41;;;9.29;76.61
31088;BME280;17745;55.914;37.554;2023-05-01T01:53:03;98224.16;;;9.28;76.46
31088;BME280;17745;55.914;37.554;2023-05-01T01:55:44;98223.38;;;9.28;76.89
31088;BME280;17745;55.914;37.554;2023-05-01T01:58:29;98213.88;;;9.32;76.93
31088;BME280;17745;55.914;37.554;2023-05-01T02:01:24;98207.00;;;9.31;76.37
31088;BME280;17745;55.914;37.554;2023-05-01T02:03:58;98190.38;;;9.25;76.58
31088;BME280;17745;55.914;37.554;2023-05-01T02:06:41;98198.31;;;9.25;76.68
31088;BME280;17745;55.914;37.554;2023-05-01T02:09:44;98222.59;;;9.27;76.82
31088;BME280;17745;55.914;37.554;2023-05-01T02:12:14;98227.06;;;9.27;76.83
31088;BME280;17745;55.914;37.554;2023-05-01T02:15:37;98205.44;;;9.30;76.84
31088;BME280;17745;55.914;37.554;2023-05-01T02:18:12;98174.78;;;9.34;76.49
31088;BME280;17745;55.914;37.554;2023-05-01T02:21:07;98168.78;;;9.03;77.02
31088;BME280;17745;55.914;37.554;2023-05-01T02:23:46;98195.41;;;9.22;76.88
31088;BME280;17745;55.914;37.554;2023-05-01T02:26:15;98210.97;;;9.18;77.19
31088;BME280;17745;55.914;37.554;2023-05-01T02:29:15;98215.75;;;9.16;77.23
31088;BME280;17745;55.914;37.554;2023-05-01T02:31:57;98204.41;;;9.10;77.20
31088;BME280;17745;55.914;37.554;2023-05-01T02:34:53;98196.22;;;9.12;77.30
31088;BME280;17745;55.914;37.554;2023-05-01T02:37:52;98195.13;;;9.28;77.21
31088;BME280;17745;55.914;37.554;2023-05-01T02:40:55;98187.47;;;9.32;77.08
31088;BME280;17745;55.914;37.554;2023-05-01T02:43:45;98190.06;;;9.37;77.09
31088;BME280;17745;55.914;37.554;2023-05-01T02:46:35;98195.34;;;9.42;77.07
31088;BME280;17745;55.914;37.554;2023-05-01T02:49:35;98198.53;;;9.39;77.04
31088;BME280;17745;55.914;37.554;2023-05-01T02:52:30;98221.97;;;9.62;76.83
31088;BME280;17745;55.914;37.554;2023-05-01T02:55:07;98232.47;;;9.77;76.98
31088;BME280;17745;55.914;37.554;2023-05-01T02:57:57;98248.56;;;9.91;76.82
31088;BME280;17745;55.914;37.554;2023-05-01T03:00:37;98258.28;;;10.06;76.74
31088;BME280;17745;55.914;37.554;2023-05-01T03:03:39;98259.28;;;10.15;76.53
31088;BME280;17745;55.914;37.554;2023-05-01T03:16:48;98244.91;;;10.32;75.89
31088;BME280;17745;55.914;37.554;2023-05-01T03:19:56;98242.44;;;10.51;76.47
31088;BME280;17745;55.914;37.554;2023-05-01T03:22:59;98246.06;;;10.61;76.04
31088;BME280;17745;55.914;37.554;2023-05-01T03:25:46;98234.16;;;10.63;75.92
31088;BME280;17745;55.914;37.554;2023-05-01T03:28:34;98234.97;;;10.58;76.17
31088;BME280;17745;55.914;37.554;2023-05-01T03:31:36;98237.81;;;10.67;76.61
31088;BME280;17745;55.914;37.554;2023-05-01T03:34:54;98238.56;;;10.73;76.22
31088;BME280;17745;55.914;37.554;2023-05-01T03:37:56;98238.00;;;10.76;75.96
31088;BME280;17745;55.914;37.554;2023-05-01T03:40:54;98247.59;;;10.72;75.82
31088;BME280;17745;55.914;37.554;2023-05-01T03:43:54;98243.88;;;10.73;76.13
31088;BME280;17745;55.914;37.554;2023-05-01T03:46:53;98240.81;;;10.55;76.05
31088;BME280;17745;55.914;37.554;2023-05-01T04:00:40;98259.34;;;10.50;76.56
31088;BME280;17745;55.914;37.554;2023-05-01T04:03:47;98248.75;;;10.55;76.49
31088;BME280;17745;55.914;37.554;2023-05-01T04:06:39;98254.06;;;10.55;76.44
31088;BME280;17745;55.914;37.554;2023-05-01T04:10:14;98247.03;;;10.70;76.74
31088;BME280;17745;55.914;37.554;2023-05-01T04:13:12;98244.78;;;10.87;76.55
31088;BME280;17745;55.914;37.554;2023-05-01T04:16:26;98235.06;;;10.83;76.42
31088;BME280;17745;55.914;37.554;2023-05-01T04:19:23;98253.25;;;10.90;76.91
31088;BME280;17745;55.914;37.554;2023-05-01T04:22:04;98252.16;;;10.96;76.85
31088;BME280;17745;55.914;37.554;2023-05-01T04:25:08;98248.34;;;11.07;77.40
31088;BME280;17745;55.914;37.554;2023-05-01T04:28:18;98262.59;;;11.11;76.71
31088;BME280;17745;55.914;37.554;2023-05-01T05:05:47;98281.31;;;10.91;76.90
31088;BME280;17745;55.914;37.554;2023-05-01T05:08:45;98278.94;;;10.89;76.60
31088;BME280;17745;55.914;37.554;2023-05-01T05:11:57;98282.47;;;10.79;76.60
31088;BME280;17745;55.914;37.554;2023-05-01T05:14:57;98289.28;;;10.85;76.57
31088;BME280;17745;55.914;37.554;2023-05-01T05:17:58;98286.94;;;10.84;76.80
31088;BME280;17745;55.914;37.554;2023-05-01T06:04:35;98293.37;;;11.37;75.96
31088;BME280;17745;55.914;37.554;2023-05-01T06:07:41;98305.09;;;11.30;75.76
31088;BME280;17745;55.914;37.554;2023-05-01T06:10:49;98302.50;;;11.55;76.28
31088;BME280;17745;55.914;37.554;2023-05-01T06:14:09;98309.87;;;11.82;76.51
31088;BME280;17745;55.914;37.554;2023-05-01T06:35:39;98343.16;;;12.81;76.70
31088;BME280;17745;55.914;37.554;2023-05-01T06:41:53;98352.13;;;12.85;76.10
31088;BME280;17745;55.914;37.554;2023-05-01T06:45:30;98329.94;;;12.95;76.15
31088;BME280;17745;55.914;37.554;2023-05-01T06:48:45;98345.63;;;13.10;75.68
31088;BME280;17745;55.914;37.554;2023-05-01T07:06:40;98362.34;;;12.97;73.01
31088;BME280;17745;55.914;37.554;2023-05-01T07:09:29;98373.22;;;13.14;74.28
31088;BME280;17745;55.914;37.554;2023-05-01T07:12:20;98380.84;;;13.35;74.92
31088;BME280;17745;55.914;37.554;2023-05-01T07:15:23;98380.88;;;13.68;74.92
31088;BME280;17745;55.914;37.554;2023-05-01T07:18:27;98386.44;;;13.86;75.68
31088;BME280;17745;55.914;37.554;2023-05-01T08:10:08;98430.41;;;14.39;68.71
31088;BME280;17745;55.914;37.554;2023-05-01T08:17:08;98435.94;;;14.29;68.85
31088;BME280;17745;55.914;37.554;2023-05-01T08:59:04;98506.75;;;13.64;69.08
31088;BME280;17745;55.914;37.554;2023-05-01T09:02:18;98513.97;;;13.96;72.31
31088;BME280;17745;55.914;37.554;2023-05-01T09:05:30;98519.09;;;14.40;71.97
31088;BME280;17745;55.914;37.554;2023-05-01T09:09:16;98506.34;;;14.37;68.72
31088;BME280;17745;55.914;37.554;2023-05-01T09:12:40;98530.37;;;14.18;68.37
31088;BME280;17745;55.914;37.554;2023-05-01T09:22:26;98533.31;;;14.16;66.73
31088;BME280;17745;55.914;37.554;2023-05-01T09:25:47;98534.41;;;14.76;69.18
31088;BME280;17745;55.914;37.554;2023-05-01T09:28:47;98534.91;;;14.78;66.00
31088;BME280;17745;55.914;37.554;2023-05-01T09:31:36;98541.59;;;15.04;68.25
31088;BME280;17745;55.914;37.554;2023-05-01T09:35:08;98541.12;;;15.01;66.92
31088;BME280;17745;55.914;37.554;2023-05-01T09:38:24;98534.88;;;15.20;67.76
31088;BME280;17745;55.914;37.554;2023-05-01T09:41:31;98549.56;;;14.48;64.18
31088;BME280;17745;55.914;37.554;2023-05-01T09:44:40;98542.03;;;14.36;65.99
31088;BME280;17745;55.914;37.554;2023-05-01T09:47:35;98544.13;;;13.92;66.41
31088;BME280;17745;55.914;37.554;2023-05-01T09:54:31;98549.50;;;13.86;65.07
31088;BME280;17745;55.914;37.554;2023-05-01T09:57:38;98550.50;;;14.24;65.75
31088;BME280;17745;55.914;37.554;2023-05-01T10:00:28;98552.91;;;14.53;64.79
31088;BME280;17745;55.914;37.554;2023-05-01T10:03:22;98551.00;;;14.26;63.09
31088;BME280;17745;55.914;37.554;2023-05-01T10:09:25;98562.31;;;12.54;62.48
31088;BME280;17745;55.914;37.554;2023-05-01T10:12:22;98543.94;;;13.06;64.17
31088;BME280;17745;55.914;37.554;2023-05-01T10:15:00;98563.84;;;12.84;63.72
31088;BME280;17745;55.914;37.554;2023-05-01T10:17:59;98566.25;;;13.29;63.64
31088;BME280;17745;55.914;37.554;2023-05-01T10:21:26;98547.03;;;12.40;60.73
31088;BME280;17745;55.914;37.554;2023-05-01T10:27:26;98606.44;;;11.09;62.86
31088;BME280;17745;55.914;37.554;2023-05-01T10:30:18;98614.66;;;11.73;64.28
31088;BME280;17745;55.914;37.554;2023-05-01T10:33:04;98616.94;;;11.91;63.85
31088;BME280;17745;55.914;37.554;2023-05-01T10:35:45;98619.78;;;12.05;64.49
31088;BME280;17745;55.914;37.554;2023-05-01T10:38:38;98610.62;;;11.81;63.82
31088;BME280;17745;55.914;37.554;2023-05-01T10:42:05;98613.97;;;10.35;63.96
31088;BME280;17745;55.914;37.554;2023-05-01T10:45:30;98641.50;;;10.70;64.86
31088;BME280;17745;55.914;37.554;2023-05-01T10:49:01;98643.09;;;10.71;64.51
31088;BME280;17745;55.914;37.554;2023-05-01T10:52:11;98654.34;;;9.68;64.83
31088;BME280;17745;55.914;37.554;2023-05-01T10:58:58;98661.16;;;9.58;66.09
31088;BME280;17745;55.914;37.554;2023-05-01T11:03:09;98709.69;;;9.37;65.98
31088;BME280;17745;55.914;37.554;2023-05-01T11:06:11;98678.72;;;8.79;66.05
31088;BME280;17745;55.914;37.554;2023-05-01T11:09:40;98711.59;;;8.66;66.20
31088;BME280;17745;55.914;37.554;2023-05-01T11:20:47;98718.16;;;8.08;68.08
31088;BME280;17745;55.914;37.554;2023-05-01T11:23:45;98715.56;;;7.86;69.59
31088;BME280;17745;55.914;37.554;2023-05-01T11:26:44;98708.88;;;8.55;67.33
31088;BME280;17745;55.914;37.554;2023-05-01T11:29:22;98777.22;;;8.07;67.71
31088;BME280;17745;55.914;37.554;2023-05-01T11:32:10;98695.94;;;7.54;68.23
31088;BME280;17745;55.914;37.554;2023-05-01T11:34:57;98745.56;;;8.07;68.67
31088;BME280;17745;55.914;37.554;2023-05-01T11:37:43;98738.47;;;8.57;67.96
31088;BME280;17745;55.914;37.554;2023-05-01T11:40:26;98732.66;;;8.93;67.52
31088;BME280;17745;55.914;37.554;2023-05-01T11:43:18;98753.97;;;8.81;67.15
31088;BME280;17745;55.914;37.554;2023-05-01T11:46:06;98758.66;;;8.74;66.84
31088;BME280;17745;55.914;37.554;2023-05-01T11:49:07;98758.28;;;8.93;67.63
31088;BME280;17745;55.914;37.554;2023-05-01T11:51:42;98757.78;;;8.41;67.58
31088;BME280;17745;55.914;37.554;2023-05-01T11:54:31;98772.84;;;8.18;67.23
31088;BME280;17745;55.914;37.554;2023-05-01T11:57:25;98765.03;;;8.78;67.76
31088;BME280;17745;55.914;37.554;2023-05-01T12:00:11;98751.16;;;8.61;67.61
31088;BME280;17745;55.914;37.554;2023-05-01T12:03:51;98774.03;;;8.82;67.98
31088;BME280;17745;55.914;37.554;2023-05-01T12:07:08;98791.91;;;7.58;68.81
31088;BME280;17745;55.914;37.554;2023-05-01T12:10:25;98782.25;;;7.47;69.47
31088;BME280;17745;55.914;37.554;2023-05-01T12:13:24;98798.97;;;7.97;69.61
31088;BME280;17745;55.914;37.554;2023-05-01T12:16:11;98799.50;;;8.17;69.43
31088;BME280;17745;55.914;37.554;2023-05-01T12:18:48;98807.81;;;8.30;69.03
31088;BME280;17745;55.914;37.554;2023-05-01T12:21:26;98810.88;;;8.00;69.55
31088;BME280;17745;55.914;37.554;2023-05-01T12:23:55;98816.09;;;7.38;70.28
31088;BME280;17745;55.914;37.554;2023-05-01T12:26:37;98803.66;;;7.34;71.22
31088;BME280;17745;55.914;37.554;2023-05-01T12:29:07;98798.25;;;7.23;71.41
31088;BME280;17745;55.914;37.554;2023-05-01T12:31:45;98823.91;;;7.67;71.08
31088;BME280;17745;55.914;37.554;2023-05-01T12:34:31;98826.19;;;7.81;70.80
31088;BME280;17745;55.914;37.554;2023-05-01T12:37:01;98823.19;;;7.94;70.62
31088;BME280;17745;55.914;37.554;2023-05-01T12:39:39;98828.75;;;7.76;70.87
31088;BME280;17745;55.914;37.554;2023-05-01T12:42:15;98823.19;;;7.94;70.71
31088;BME280;17745;55.914;37.554;2023-05-01T12:45:00;98831.41;;;8.20;70.83
31088;BME280;17745;55.914;37.554;2023-05-01T12:47:37;98820.94;;;7.64;71.29
31088;BME280;17745;55.914;37.554;2023-05-01T12:50:12;98839.81;;;7.55;71.14
31088;BME280;17745;55.914;37.554;2023-05-01T12:52:49;98846.69;;;8.18;70.78
31088;BME280;17745;55.914;37.554;2023-05-01T12:57:03;98838.16;;;8.33;70.49
31088;BME280;17745;55.914;37.554;2023-05-01T13:03:41;98846.91;;;7.94;70.69
31088;BME280;17745;55.914;37.554;2023-05-01T13:06:39;98860.31;;;7.36;71.88
31088;BME280;17745;55.914;37.554;2023-05-01T13:09:16;98861.09;;;8.10;70.75
31088;BME280;17745;55.914;37.554;2023-05-01T13:12:41;98860.66;;;8.41;70.55
31088;BME280;17745;55.914;37.554;2023-05-01T13:15:19;98868.56;;;8.58;70.13
31088;BME280;17745;55.914;37.554;2023-05-01T13:18:49;98870.38;;;8.13;70.44
31088;BME280;17745;55.914;37.554;2023-05-01T13:25:20;98872.56;;;7.99;70.85
31088;BME280;17745;55.914;37.554;2023-05-01T13:28:23;98879.31;;;8.34;70.15
31088;BME280;17745;55.914;37.554;2023-05-01T13:33:04;98883.56;;;8.80;69.64
31088;BME280;17745;55.914;37.554;2023-05-01T13:34:59;98896.72;;;9.02;70.03
31088;BME280;17745;55.914;37.554;2023-05-01T13:37:44;98903.53;;;8.98;69.57
31088;BME280;17745;55.914;37.554;2023-05-01T13:40:28;98895.81;;;8.91;69.45
31088;BME280;17745;55.914;37.554;2023-05-01T13:43:57;98897.69;;;8.68;70.09
31088;BME280;17745;55.914;37.554;2023-05-01T13:46:42;98896.19;;;8.50;69.96
31088;BME280;17745;55.914;37.554;2023-05-01T13:49:24;98911.34;;;8.43;69.86
31088;BME280;17745;55.914;37.554;2023-05-01T13:52:23;98926.03;;;7.77;69.68
31088;BME280;17745;55.914;37.554;2023-05-01T13:55:29;98914.66;;;8.50;69.47
31088;BME280;17745;55.914;37.554;2023-05-01T13:58:14;98918.44;;;8.20;69.93
31088;BME280;17745;55.914;37.554;2023-05-01T14:00:48;98916.41;;;8.05;69.99
31088;BME280;17745;55.914;37.554;2023-05-01T14:03:28;98924.78;;;8.41;69.46
31088;BME280;17745;55.914;37.554;2023-05-01T14:06:12;98914.28;;;8.24;69.28
31088;BME280;17745;55.914;37.554;2023-05-01T14:09:19;98916.44;;;7.71;69.81
31088;BME280;17745;55.914;37.554;2023-05-01T14:18:30;98956.84;;;6.84;70.03
31088;BME280;17745;55.914;37.554;2023-05-01T14:21:57;98946.50;;;6.95;71.24
31088;BME280;17745;55.914;37.554;2023-05-01T14:25:19;98948.53;;;7.22;69.81
31088;BME280;17745;55.914;37.554;2023-05-01T14:28:03;98956.66;;;8.18;67.96
31088;BME280;17745;55.914;37.554;2023-05-01T14:30:50;98984.06;;;8.73;66.51
31088;BME280;17745;55.914;37.554;2023-05-01T14:33:44;98932.47;;;9.42;64.96
31088;BME280;17745;55.914;37.554;2023-05-01T14:36:26;98934.59;;;8.63;64.05
31088;BME280;17745;55.914;37.554;2023-05-01T14:39:26;98934.31;;;9.42;62.67
31088;BME280;17745;55.914;37.554;2023-05-01T14:42:03;98946.94;;;10.00;62.32
31088;BME280;17745;55.914;37.554;2023-05-01T14:44:50;98933.81;;;9.45;60.39
31088;BME280;17745;55.914;37.554;2023-05-01T14:47:27;98942.22;;;9.09;60.49
31088;BME280;17745;55.914;37.554;2023-05-01T14:50:05;98952.56;;;9.76;60.02
31088;BME280;17745;55.914;37.554;2023-05-01T14:52:36;98954.59;;;10.01;59.48
31088;BME280;17745;55.914;37.554;2023-05-01T14:55:25;98974.16;;;10.00;59.05
31088;BME280;17745;55.914;37.554;2023-05-01T14:58:21;98964.78;;;9.82;58.86
31088;BME280;17745;55.914;37.554;2023-05-01T15:00:59;98987.53;;;9.01;58.89
31088;BME280;17745;55.914;37.554;2023-05-01T15:03:43;98987.22;;;8.53;59.02
31088;BME280;17745;55.914;37.554;2023-05-01T15:06:23;98968.03;;;8.80;59.26
31088;BME280;17745;55.914;37.554;2023-05-01T15:09:35;98999.12;;;9.00;58.32
31088;BME280;17745;55.914;37.554;2023-05-01T15:12:13;98991.78;;;9.29;57.92
31088;BME280;17745;55.914;37.554;2023-05-01T15:14:59;98988.97;;;9.36;57.49
31088;BME280;17745;55.914;37.554;2023-05-01T15:17:46;98990.22;;;9.06;58.09
31088;BME280;17745;55.914;37.554;2023-05-01T15:20:24;98992.63;;;9.08;57.75
31088;BME280;17745;55.914;37.554;2023-05-01T15:22:59;99013.16;;;9.00;58.09
31088;BME280;17745;55.914;37.554;2023-05-01T15:25:53;98984.59;;;9.25;57.32
31088;BME280;17745;55.914;37.554;2023-05-01T15:28:24;99001.97;;;9.43;57.29
31088;BME280;17745;55.914;37.554;2023-05-01T15:30:59;99007.47;;;9.64;57.08
31088;BME280;17745;55.914;37.554;2023-05-01T15:33:51;99002.25;;;9.47;57.09
31088;BME280;17745;55.914;37.554;2023-05-01T15:36:55;99010.63;;;9.11;57.48
31088;BME280;17745;55.914;37.554;2023-05-01T15:39:35;99026.50;;;9.38;56.90
31088;BME280;17745;55.914;37.554;2023-05-01T15:43:07;99028.31;;;9.38;56.80
31088;BME280;17745;55.914;37.554;2023-05-01T15:46:16;99037.38;;;9.42;56.51
31088;BME280;17745;55.914;37.554;2023-05-01T15:48:50;99037.84;;;9.66;56.26
31088;BME280;17745;55.914;37.554;2023-05-01T15:51:33;99053.78;;;9.71;56.25
31088;BME280;17745;55.914;37.554;2023-05-01T15:57:49;99057.75;;;9.74;55.91
31088;BME280;17745;55.914;37.554;2023-05-01T16:01:39;99064.75;;;9.58;55.66
31088;BME280;17745;55.914;37.554;2023-05-01T16:05:11;99062.19;;;9.68;55.74
31088;BME280;17745;55.914;37.554;2023-05-01T16:08:43;99074.28;;;9.59;55.55
31088;BME280;17745;55.914;37.554;2023-05-01T16:24:08;99090.56;;;9.78;55.10
31088;BME280;17745;55.914;37.554;2023-05-01T16:34:54;99109.44;;;9.37;54.36
31088;BME280;17745;55.914;37.554;2023-05-01T16:45:15;99139.91;;;9.67;54.11
31088;BME280;17745;55.914;37.554;2023-05-01T16:51:26;99134.00;;;9.82;54.30
31088;BME280;17745;55.914;37.554;2023-05-01T16:54:32;99140.13;;;9.88;54.41
31088;BME280;17745;55.914;37.554;2023-05-01T16:57:46;99143.25;;;9.85;54.11
31088;BME280;17745;55.914;37.554;2023-05-01T17:00:32;99143.44;;;9.78;54.18
31088;BME280;17745;55.914;37.554;2023-05-01T17:03:20;99140.31;;;9.54;54.29
31088;BME280;17745;55.914;37.554;2023-05-01T17:06:16;99139.97;;;9.50;54.39
31088;BME280;17745;55.914;37.554;2023-05-01T17:09:01;99147.28;;;9.65;54.33
31088;BME280;17745;55.914;37.554;2023-05-01T17:11:35;99140.53;;;9.75;54.24
31088;BME280;17745;55.914;37.554;2023-05-01T17:14:04;99149.56;;;9.79;54.09
31088;BME280;17745;55.914;37.554;2023-05-01T17:17:09;99145.66;;;9.86;54.43
31088;BME280;17745;55.914;37.554;2023-05-01T17:19:41;99151.59;;;9.99;54.75
31088;BME280;17745;55.914;37.554;2023-05-01T17:22:28;99153.00;;;10.07;54.76
31088;BME280;17745;55.914;37.554;2023-05-01T17:25:19;99154.31;;;10.04;54.30
31088;BME280;17745;55.914;37.554;2023-05-01T17:28:13;99154.56;;;10.02;54.25
31088;BME280;17745;55.914;37.554;2023-05-01T17:30:55;99160.56;;;9.98;54.55
31088;BME280;17745;55.914;37.554;2023-05-01T17:33:42;99161.34;;;9.93;54.73
31088;BME280;17745;55.914;37.554;2023-05-01T17:36:24;99169.78;;;9.90;54.62
31088;BME280;17745;55.914;37.554;2023-05-01T17:39:12;99167.31;;;9.83;54.69
31088;BME280;17745;55.914;37.554;2023-05-01T17:41:59;99177.81;;;9.78;54.67
31088;BME280;17745;55.914;37.554;2023-05-01T17:44:55;99185.16;;;9.71;54.80
31088;BME280;17745;55.914;37.554;2023-05-01T17:48:00;99193.53;;;9.63;54.53
31088;BME280;17745;55.914;37.554;2023-05-01T17:51:43;99195.25;;;9.52;54.75
31088;BME280;17745;55.914;37.554;2023-05-01T17:54:51;99208.00;;;9.38;54.64
31088;BME280;17745;55.914;37.554;2023-05-01T17:57:59;99210.63;;;9.15;54.33
31088;BME280;17745;55.914;37.554;2023-05-01T18:01:26;99212.72;;;9.13;54.42
31088;BME280;17745;55.914;37.554;2023-05-01T18:04:33;99220.47;;;9.03;54.51
31088;BME280;17745;55.914;37.554;2023-05-01T18:07:36;99216.66;;;8.94;54.64
31088;BME280;17745;55.914;37.554;2023-05-01T18:10:10;99227.84;;;8.84;54.75
31088;BME280;17745;55.914;37.554;2023-05-01T18:13:15;99223.75;;;8.76;54.90
31088;BME280;17745;55.914;37.554;2023-05-01T18:16:15;99232.53;;;8.65;55.10
31088;BME280;17745;55.914;37.554;2023-05-01T18:19:25;99237.66;;;8.54;55.22
31088;BME280;17745;55.914;37.554;2023-05-01T18:22:22;99244.00;;;8.41;55.31
31088;BME280;17745;55.914;37.554;2023-05-01T18:25:09;99243.75;;;8.43;55.23
31088;BME280;17745;55.914;37.554;2023-05-01T18:28:05;99257.41;;;8.40;55.35
31088;BME280;17745;55.914;37.554;2023-05-01T18:31:27;99259.72;;;8.36;55.49
31088;BME280;17745;55.914;37.554;2023-05-01T18:34:16;99256.22;;;8.30;55.62
31088;BME280;17745;55.914;37.554;2023-05-01T18:37:14;99261.37;;;8.25;55.76
31088;BME280;17745;55.914;37.554;2023-05-01T18:39:53;99260.50;;;8.20;55.84
31088;BME280;17745;55.914;37.554;2023-05-01T18:42:27;99264.06;;;8.13;55.99
31088;BME280;17745;55.914;37.554;2023-05-01T18:45:00;99261.19;;;8.15;55.97
31088;BME280;17745;55.914;37.554;2023-05-01T18:47:38;99269.09;;;8.15;55.96
31088;BME280;17745;55.914;37.554;2023-05-01T18:50:25;99268.87;;;8.05;56.17
31088;BME280;17745;55.914;37.554;2023-05-01T19:04:02;99277.09;;;8.20;55.32
31088;BME280;17745;55.914;37.554;2023-05-01T19:10:32;99287.88;;;7.78;56.02
31088;BME280;17745;55.914;37.554;2023-05-01T19:13:09;99298.78;;;7.57;56.36
31088;BME280;17745;55.914;37.554;2023-05-01T19:16:20;99301.97;;;7.71;55.97
31088;BME280;17745;55.914;37.554;2023-05-01T19:27:44;99305.66;;;7.58;55.93
31088;BME280;17745;55.914;37.554;2023-05-01T19:30:48;99321.69;;;7.33;56.52
31088;BME280;17745;55.914;37.554;2023-05-01T19:34:00;99326.75;;;7.47;56.05
31088;BME280;17745;55.914;37.554;2023-05-01T19:37:21;99323.75;;;7.31;56.37
31088;BME280;17745;55.914;37.554;2023-05-01T19:40:35;99326.56;;;7.18;56.54
31088;BME280;17745;55.914;37.554;2023-05-01T19:57:40;99339.44;;;7.38;55.70
31088;BME280;17745;55.914;37.554;2023-05-01T20:00:30;99350.53;;;7.28;55.88
31088;BME280;17745;55.914;37.554;2023-05-01T20:03:51;99326.47;;;7.12;56.10
31088;BME280;17745;55.914;37.554;2023-05-01T20:06:55;99351.19;;;7.11;56.21
31088;BME280;17745;55.914;37.554;2023-05-01T20:10:08;99364.00;;;7.20;56.16
31088;BME280;17745;55.914;37.554;2023-05-01T20:16:36;99360.81;;;7.29;55.88
31088;BME280;17745;55.914;37.554;2023-05-01T20:19:40;99359.31;;;7.22;56.06
31088;BME280;17745;55.914;37.554;2023-05-01T20:22:56;99361.59;;;7.06;56.55
31088;BME280;17745;55.914;37.554;2023-05-01T20:26:09;99362.50;;;7.12;56.36
31088;BME280;17745;55.914;37.554;2023-05-01T20:29:18;99366.88;;;7.06;56.44
31088;BME280;17745;55.914;37.554;2023-05-01T20:32:25;99371.09;;;7.07;56.36
31088;BME280;17745;55.914;37.554;2023-05-01T20:35:32;99382.50;;;7.01;56.46
31088;BME280;17745;55.914;37.554;2023-05-01T20:38:30;99380.31;;;6.98;56.46
31088;BME280;17745;55.914;37.554;2023-05-01T20:41:57;99380.19;;;6.93;56.54
31088;BME280;17745;55.914;37.554;2023-05-01T20:44:48;99386.38;;;6.86;56.60
31088;BME280;17745;55.914;37.554;2023-05-01T20:47:54;99395.06;;;6.87;56.55
31088;BME280;17745;55.914;37.554;2023-05-01T20:50:49;99385.78;;;6.84;56.55
31088;BME280;17745;55.914;37.554;2023-05-01T20:53:33;99401.81;;;6.64;56.92
31088;BME280;17745;55.914;37.554;2023-05-01T20:56:18;99406.75;;;6.72;56.65
31088;BME280;17745;55.914;37.554;2023-05-01T20:59:24;99402.75;;;6.70;56.64
31088;BME280;17745;55.914;37.554;2023-05-01T21:02:04;99404.97;;;6.54;56.88
31088;BME280;17745;55.914;37.554;2023-05-01T21:04:50;99416.19;;;6.62;56.67
31088;BME280;17745;55.914;37.554;2023-05-01T21:07:34;99421.84;;;6.65;56.58
31088;BME280;17745;55.914;37.554;2023-05-01T21:10:17;99418.62;;;6.63;56.52
31088;BME280;17745;55.914;37.554;2023-05-01T21:13:09;99415.78;;;6.65;56.42
31088;BME280;17745;55.914;37.554;2023-05-01T21:16:20;99427.53;;;6.62;56.43
31088;BME280;17745;55.914;37.554;2023-05-01T21:18:58;99438.44;;;6.66;56.33
31088;BME280;17745;55.914;37.554;2023-05-01T21:22:00;99441.16;;;6.59;56.39
31088;BME280;17745;55.914;37.554;2023-05-01T21:24:47;99446.41;;;6.59;56.41
31088;BME280;17745;55.914;37.554;2023-05-01T21:27:42;99453.94;;;6.55;56.41
31088;BME280;17745;55.914;37.554;2023-05-01T21:30:27;99460.94;;;6.43;56.78
31088;BME280;17745;55.914;37.554;2023-05-01T21:33:04;99462.56;;;6.44;56.62
31088;BME280;17745;55.914;37.554;2023-05-01T21:35:49;99462.56;;;6.44;56.63
31088;BME280;17745;55.914;37.554;2023-05-01T21:38:27;99471.31;;;6.38;56.74
31088;BME280;17745;55.914;37.554;2023-05-01T21:40:57;99470.72;;;6.36;56.77
31088;BME280;17745;55.914;37.554;2023-05-01T21:43:31;99479.88;;;6.33;56.81
31088;BME280;17745;55.914;37.554;2023-05-01T21:46:13;99483.91;;;6.29;56.91
31088;BME280;17745;55.914;37.554;2023-05-01T21:48:48;99485.75;;;6.28;56.96
31088;BME280;17745;55.914;37.554;2023-05-01T21:51:27;99489.47;;;6.21;57.03
31088;BME280;17745;55.914;37.554;2023-05-01T21:54:09;99493.28;;;6.25;57.01
31088;BME280;17745;55.914;37.554;2023-05-01T21:56:43;99495.31;;;6.23;56.99
31088;BME280;17745;55.914;37.554;2023-05-01T21:59:23;99497.56;;;6.19;57.02
31088;BME280;17745;55.914;37.554;2023-05-01T22:01:58;99498.81;;;6.17;57.13
31088;BME280;17745;55.914;37.554;2023-05-01T22:04:28;99505.09;;;6.15;57.14
31088;BME280;17745;55.914;37.554;2023-05-01T22:07:14;99508.75;;;6.14;57.15
31088;BME280;17745;55.914;37.554;2023-05-01T22:09:50;99509.75;;;6.13;57.20
31088;BME280;17745;55.914;37.554;2023-05-01T22:12:41;99516.84;;;6.13;57.18
31088;BME280;17745;55.914;37.554;2023-05-01T22:15:18;99530.41;;;6.10;57.32
31088;BME280;17745;55.914;37.554;2023-05-01T22:17:52;99523.13;;;6.12;57.21
31088;BME280;17745;55.914;37.554;2023-05-01T22:20:30;99528.81;;;6.09;57.24